createdAt,value
2022-12-04T00:00:34.263Z,29.5
2022-12-04T00:01:12.492Z,26.60
2022-12-04T00:02:12.891Z,28.20
2022-12-04T00:03:13.407Z,26.29
2022-12-04T00:04:12.682Z,27.10
2022-12-04T00:05:13.194Z,26.10
2022-12-04T00:06:13.409Z,27.79
2022-12-04T00:07:13.256Z,26.89
2022-12-04T00:08:12.702Z,26.5
2022-12-04T00:09:13.244Z,27.29
2022-12-04T00:10:14.151Z,26.79
2022-12-04T00:11:12.998Z,28.60
2022-12-04T00:12:13.753Z,27.20
2022-12-04T00:13:13.207Z,27.29
2022-12-04T00:14:13.595Z,26
2022-12-04T00:15:25.168Z,28.29
2022-12-04T00:16:12.767Z,27.10
2022-12-04T00:17:13.210Z,27.60
2022-12-04T00:18:13.141Z,29.39
2022-12-04T00:19:13.411Z,27.79
2022-12-04T00:20:12.469Z,26.70
2022-12-04T00:21:12.534Z,26.39
2022-12-04T00:22:13.021Z,27.29
2022-12-04T00:23:13.738Z,27.79
2022-12-04T00:24:12.953Z,26.70
2022-12-04T00:25:14.149Z,28.60
2022-12-04T00:26:13.104Z,30.20
2022-12-04T00:27:13.530Z,25.10
2022-12-04T00:28:12.944Z,28
2022-12-04T00:29:13.484Z,27.70
2022-12-04T00:31:12.964Z,27.20
2022-12-04T00:32:12.828Z,26.39
2022-12-04T00:33:12.774Z,26.70
2022-12-04T00:34:12.681Z,27.70
2022-12-04T00:35:12.888Z,25.5
2022-12-04T00:36:13.109Z,27.89
2022-12-04T00:37:12.773Z,25.10
2022-12-04T00:38:13.241Z,24.10
2022-12-04T00:39:13.847Z,25
2022-12-04T00:40:12.828Z,22.70
2022-12-04T00:41:12.696Z,23.70
2022-12-04T00:42:12.446Z,22.5
2022-12-04T00:43:13.379Z,24.5
2022-12-04T00:44:13.410Z,22.10
2022-12-04T00:45:13.827Z,22.60
2022-12-04T00:46:13.249Z,22.39
2022-12-04T00:47:12.857Z,22.89
2022-12-04T00:48:13.850Z,21.89
2022-12-04T00:49:12.583Z,22.20
2022-12-04T00:50:13.316Z,23.10
2022-12-04T00:51:14.164Z,20.70
2022-12-04T00:52:13.271Z,19.79
2022-12-04T00:53:12.785Z,20.5
2022-12-04T00:54:13.239Z,20.79
2022-12-04T00:55:13.380Z,19.79
2022-12-04T00:56:13.176Z,19.5
2022-12-04T00:57:13.590Z,19.10
2022-12-04T00:59:12.715Z,19.39
2022-12-04T01:00:13.997Z,19
2022-12-04T01:01:15.703Z,19.29
2022-12-04T01:02:14.468Z,20.89
2022-12-04T01:03:13.895Z,19.89
2022-12-04T01:04:13.737Z,20.79
2022-12-04T01:05:14.200Z,21.39
2022-12-04T01:06:12.630Z,20.79
2022-12-04T01:08:13.337Z,21.70
2022-12-04T01:09:13.281Z,22.10
2022-12-04T01:10:12.778Z,21.10
2022-12-04T01:11:13.417Z,20.89
2022-12-04T01:12:17.601Z,21.60
2022-12-04T01:14:12.564Z,22
2022-12-04T01:15:13.484Z,20.10
2022-12-04T01:16:12.785Z,19.70
2022-12-04T01:17:13.814Z,21.29
2022-12-04T01:18:13.238Z,20.5
2022-12-04T01:19:14.136Z,20.10
2022-12-04T01:20:13.545Z,20.79
2022-12-04T01:21:13.286Z,19.29
2022-12-04T01:22:13.024Z,19
2022-12-04T01:23:13.015Z,18.70
2022-12-04T01:24:12.759Z,18.79
2022-12-04T01:25:12.589Z,18.5
2022-12-04T01:26:13.259Z,18.20
2022-12-04T01:27:13.749Z,19.60
2022-12-04T01:28:13.742Z,16.79
2022-12-04T01:29:13.219Z,18.29
2022-12-04T01:30:13.849Z,17.20
2022-12-04T01:31:13.679Z,18
2022-12-04T01:32:13.156Z,18.70
2022-12-04T01:33:13.304Z,18
2022-12-04T01:34:13.007Z,19.39
2022-12-04T01:35:13.809Z,20
2022-12-04T01:36:13.499Z,20.60
2022-12-04T01:37:14.281Z,19.39
2022-12-04T01:38:13.415Z,19
2022-12-04T01:39:14.017Z,19.60
2022-12-04T01:40:12.620Z,19.39
2022-12-04T01:42:12.917Z,19.20
2022-12-04T01:43:13.070Z,19.10
2022-12-04T01:44:13.521Z,19.60
2022-12-04T01:45:13.737Z,17.5
2022-12-04T01:46:13.588Z,19.70
2022-12-04T01:48:12.929Z,17.79
2022-12-04T01:49:13.583Z,19.70
2022-12-04T01:50:13.372Z,19.20
2022-12-04T01:51:13.130Z,18.79
2022-12-04T01:52:12.849Z,19.5
2022-12-04T01:53:13.399Z,18.20
2022-12-04T01:54:13.025Z,18.60
2022-12-04T01:55:12.740Z,17.89
2022-12-04T01:56:13.794Z,19.79
2022-12-04T01:57:13.635Z,17.60
2022-12-04T01:58:13.450Z,17.29
2022-12-04T01:59:13.591Z,16.39
2022-12-04T02:00:14.763Z,17.39
2022-12-04T02:01:26.961Z,17.70
2022-12-04T02:02:13.822Z,16.29
2022-12-04T02:03:13.323Z,18
2022-12-04T02:04:12.408Z,17.70
2022-12-04T02:05:13.498Z,16.70
2022-12-04T02:06:13.603Z,16.60
2022-12-04T02:07:13.426Z,16.10
2022-12-04T02:08:14.006Z,16.39
2022-12-04T02:09:27.360Z,16.20
2022-12-04T02:10:14.619Z,16.60
2022-12-04T02:11:13.402Z,16.29
2022-12-04T02:12:14.561Z,16.20
2022-12-04T02:13:32.645Z,15.10
2022-12-04T02:14:13.657Z,15.60
2022-12-04T02:15:32.622Z,15
2022-12-04T02:16:13.129Z,14.60
2022-12-04T02:17:32.132Z,16
2022-12-04T02:18:13.587Z,15.39
2022-12-04T02:19:13.119Z,14.5
2022-12-04T02:20:13.297Z,16.60
2022-12-04T02:21:13.938Z,16.10
2022-12-04T02:22:12.792Z,15.69
2022-12-04T02:23:12.737Z,16.20
2022-12-04T02:24:12.960Z,15.5
2022-12-04T02:25:13.050Z,16.10
2022-12-04T02:26:12.418Z,17
2022-12-04T02:27:13.036Z,15
2022-12-04T02:28:12.962Z,14.10
2022-12-04T02:29:13.017Z,13.69
2022-12-04T02:30:13.273Z,13.5
2022-12-04T02:31:13.421Z,13.69
2022-12-04T02:32:13.274Z,13.89
2022-12-04T02:33:12.932Z,13.19
2022-12-04T02:34:13.857Z,14.60
2022-12-04T02:35:13.928Z,15
2022-12-04T02:36:13.130Z,14.5
2022-12-04T02:38:13.694Z,15.89
2022-12-04T02:39:13.488Z,14.89
2022-12-04T02:40:12.482Z,13.89
2022-12-04T02:41:13.460Z,13.69
2022-12-04T02:42:13.421Z,15.10
2022-12-04T02:43:12.774Z,15
2022-12-04T02:44:13.712Z,15.19
2022-12-04T02:46:13.751Z,15.10
2022-12-04T02:47:13.720Z,15
2022-12-04T02:48:13.434Z,14.69
2022-12-04T02:49:13.529Z,15.5
2022-12-04T02:50:13.426Z,14.80
2022-12-04T02:51:13.236Z,14.69
2022-12-04T02:52:13.083Z,14.30
2022-12-04T02:54:13.597Z,15.69
2022-12-04T02:55:13.767Z,14.5
2022-12-04T02:56:13.575Z,15
2022-12-04T02:57:13.487Z,15.5
2022-12-04T02:58:13.344Z,16.5
2022-12-04T02:59:13.419Z,17.39
2022-12-04T03:00:13.666Z,18.10
2022-12-04T03:01:14.055Z,18
2022-12-04T03:02:12.966Z,18.5
2022-12-04T03:03:14.072Z,18.29
2022-12-04T03:04:12.828Z,17.10
2022-12-04T03:05:13.838Z,19
2022-12-04T03:06:13.120Z,18.29
2022-12-04T03:07:13.896Z,20.39
2022-12-04T03:08:13.632Z,17.29
2022-12-04T03:09:13.363Z,17.20
2022-12-04T03:10:13.156Z,17
2022-12-04T03:11:12.948Z,17.39
2022-12-04T03:12:12.980Z,17.20
2022-12-04T03:13:14.258Z,17.5
2022-12-04T03:14:12.877Z,17.60
2022-12-04T03:15:14.073Z,16.20
2022-12-04T03:16:13.672Z,18
2022-12-04T03:17:13.799Z,17.10
2022-12-04T03:19:12.849Z,17.5
2022-12-04T03:20:13.972Z,16.89
2022-12-04T03:21:13.238Z,16.10
2022-12-04T03:23:12.674Z,16.20
2022-12-04T03:24:13.565Z,16
2022-12-04T03:26:13.282Z,18
2022-12-04T03:27:14.072Z,16.89
2022-12-04T03:28:12.654Z,16.60
2022-12-04T03:29:13.586Z,16.10
2022-12-04T03:30:13.984Z,16.29
2022-12-04T03:31:13.970Z,16.89
2022-12-04T03:32:13.315Z,15.5
2022-12-04T03:33:13.588Z,15.80
2022-12-04T03:34:13.027Z,14.89
2022-12-04T03:35:14.049Z,16.10
2022-12-04T03:36:12.757Z,15.80
2022-12-04T03:37:13.597Z,15.89
2022-12-04T03:38:12.806Z,15.39
2022-12-04T03:39:12.847Z,15.5
2022-12-04T03:40:14.088Z,15.69
2022-12-04T03:41:12.645Z,16.20
2022-12-04T03:42:12.636Z,15.69
2022-12-04T03:43:13.272Z,15.30
2022-12-04T03:44:13.588Z,16.89
2022-12-04T03:45:13.532Z,15.19
2022-12-04T03:46:13.482Z,15.69
2022-12-04T03:47:13.430Z,16
2022-12-04T03:48:15.818Z,15.80
2022-12-04T03:49:13.207Z,15.10
2022-12-04T03:51:13.578Z,16.5
2022-12-04T03:52:13.312Z,14.5
2022-12-04T03:53:13.840Z,15.30
2022-12-04T03:54:13.434Z,14.69
2022-12-04T03:55:13.461Z,14.60
2022-12-04T03:56:13.495Z,14
2022-12-04T03:57:13.184Z,14.19
2022-12-04T03:58:12.931Z,14.80
2022-12-04T03:59:13.540Z,14.69
2022-12-04T04:00:14.545Z,14.5
2022-12-04T04:01:14.179Z,13.80
2022-12-04T04:02:13.375Z,15.80
2022-12-04T04:03:12.896Z,16.5
2022-12-04T04:04:18.756Z,15.39
2022-12-04T04:05:13.831Z,14.69
2022-12-04T04:06:18.076Z,14
2022-12-04T04:07:13.695Z,15.19
2022-12-04T04:08:13.295Z,14.89
2022-12-04T04:09:13.234Z,15.69
2022-12-04T04:10:12.991Z,14.80
2022-12-04T04:11:13.329Z,13.5
2022-12-04T04:12:13.571Z,13.30
2022-12-04T04:13:13.169Z,14
2022-12-04T04:14:18.152Z,13.89
2022-12-04T04:16:13.434Z,13.19
2022-12-04T04:17:13.673Z,14.80
2022-12-04T04:18:13.427Z,14.10
2022-12-04T04:19:13.052Z,14.69
2022-12-04T04:20:13.472Z,14.80
2022-12-04T04:21:12.473Z,12.5
2022-12-04T04:22:13.896Z,12.19
2022-12-04T04:23:13.174Z,13.5
2022-12-04T04:24:13.055Z,14.10
2022-12-04T04:25:13.472Z,13.10
2022-12-04T04:26:13.245Z,13.19
2022-12-04T04:27:12.844Z,12.19
2022-12-04T04:29:13.628Z,12.80
2022-12-04T04:30:13.570Z,13.60
2022-12-04T04:31:13.575Z,14.80
2022-12-04T04:32:13.513Z,14.60
2022-12-04T04:33:13.237Z,13.80
2022-12-04T04:34:13.638Z,14.89
2022-12-04T04:35:13.936Z,13.80
2022-12-04T04:36:13.967Z,13
2022-12-04T04:37:13.043Z,13.60
2022-12-04T04:38:13.643Z,14.30
2022-12-04T04:39:13.687Z,14
2022-12-04T04:40:13.604Z,14.30
2022-12-04T04:41:13.170Z,14.5
2022-12-04T04:42:13.266Z,14.69
2022-12-04T04:43:13.203Z,14
2022-12-04T04:44:12.849Z,16.79
2022-12-04T04:45:12.619Z,14
2022-12-04T04:46:13.403Z,13.30
2022-12-04T04:47:13.569Z,14.80
2022-12-04T04:48:13.585Z,15.30
2022-12-04T04:49:13.344Z,15.69
2022-12-04T04:50:13.132Z,15.89
2022-12-04T04:51:12.771Z,15.19
2022-12-04T04:52:13.421Z,14.80
2022-12-04T04:53:13.811Z,15.60
2022-12-04T04:54:13.611Z,15.39
2022-12-04T04:55:13.473Z,14.89
2022-12-04T04:56:13.270Z,14.69
2022-12-04T04:57:13.195Z,15.19
2022-12-04T04:58:12.740Z,15.89
2022-12-04T04:59:13.551Z,15
2022-12-04T05:00:13.526Z,14.39
2022-12-04T05:01:12.822Z,16
2022-12-04T05:02:13.472Z,14.39
2022-12-04T05:03:13.529Z,15
2022-12-04T05:04:14.223Z,15.10
2022-12-04T05:05:13.552Z,16
2022-12-04T05:06:13.033Z,13.80
2022-12-04T05:07:13.610Z,15.5
2022-12-04T05:08:13.294Z,15.89
2022-12-04T05:09:13.175Z,13.89
2022-12-04T05:10:13.191Z,14.10
2022-12-04T05:11:12.770Z,14.80
2022-12-04T05:12:13.981Z,16.5
2022-12-04T05:13:13.309Z,14.19
2022-12-04T05:14:13.287Z,14.30
2022-12-04T05:15:12.880Z,15.89
2022-12-04T05:16:13.787Z,13.80
2022-12-04T05:17:13.530Z,14.89
2022-12-04T05:18:13.750Z,13.80
2022-12-04T05:19:13.498Z,15.19
2022-12-04T05:20:13.237Z,14.19
2022-12-04T05:21:13.072Z,14.5
2022-12-04T05:22:13.633Z,14.30
2022-12-04T05:24:13.827Z,13.60
2022-12-04T05:25:14.312Z,14.69
2022-12-04T05:26:13.867Z,15
2022-12-04T05:27:13.398Z,14.19
2022-12-04T05:28:13.397Z,13.69
2022-12-04T05:29:12.817Z,14
2022-12-04T05:30:14.446Z,14.60
2022-12-04T05:31:13.215Z,15.10
2022-12-04T05:32:13.873Z,13.80
2022-12-04T05:33:13.426Z,15.10
2022-12-04T05:34:13.455Z,14.30
2022-12-04T05:35:14.038Z,16.79
2022-12-04T05:36:13.444Z,14.19
2022-12-04T05:37:13.616Z,14.39
2022-12-04T05:38:13.255Z,14.80
2022-12-04T05:39:13.131Z,14.69
2022-12-04T05:40:13.490Z,13.80
2022-12-04T05:41:12.341Z,14.10
2022-12-04T05:42:14.228Z,14.5
2022-12-04T05:43:13.054Z,13.39
2022-12-04T05:44:13.756Z,14
2022-12-04T05:45:13.754Z,15.30
2022-12-04T05:46:13.507Z,14.19
2022-12-04T05:47:14.100Z,13.30
2022-12-04T05:48:13.201Z,13.69
2022-12-04T05:49:12.808Z,13.30
2022-12-04T05:50:13.528Z,13.89
2022-12-04T05:51:13.825Z,13.80
2022-12-04T05:52:13.056Z,13.89
2022-12-04T05:54:13.585Z,13.80
2022-12-04T05:55:13.668Z,15.10
2022-12-04T05:56:13.155Z,14.60
2022-12-04T05:57:13.515Z,13.89
2022-12-04T05:58:13.508Z,13.80
2022-12-04T05:59:12.939Z,15.89
2022-12-04T06:00:14.114Z,16.5
2022-12-04T06:01:13.100Z,14.60
2022-12-04T06:02:14.465Z,15.39
2022-12-04T06:03:13.592Z,15.89
2022-12-04T06:04:13.747Z,14.80
2022-12-04T06:05:14.126Z,14.60
2022-12-04T06:06:19.268Z,15.30
2022-12-04T06:07:14.300Z,15.10
2022-12-04T06:08:13.354Z,14.30
2022-12-04T06:09:13.473Z,12.89
2022-12-04T06:10:13.671Z,14.89
2022-12-04T06:11:14.194Z,13.89
2022-12-04T06:12:13.519Z,16.60
2022-12-04T06:13:13.310Z,15.89
2022-12-04T06:14:13.163Z,16.89
2022-12-04T06:15:13.690Z,15.19
2022-12-04T06:16:13.819Z,17.89
2022-12-04T06:17:13.663Z,15.5
2022-12-04T06:19:13.457Z,15.5
2022-12-04T06:20:13.782Z,16.10
2022-12-04T06:21:13.205Z,16.70
2022-12-04T06:22:13.707Z,17.39
2022-12-04T06:23:12.898Z,16.60
2022-12-04T06:24:13.417Z,15.5
2022-12-04T06:25:13.995Z,14.89
2022-12-04T06:26:13.539Z,15.60
2022-12-04T06:27:28.455Z,16.29
2022-12-04T06:28:13.861Z,14.69
2022-12-04T06:29:13.767Z,15.89
2022-12-04T06:30:14.322Z,15.10
2022-12-04T06:32:17.978Z,16.60
2022-12-04T06:33:13.688Z,14.89
2022-12-04T06:34:13.548Z,15.5
2022-12-04T06:35:18.516Z,15.60
2022-12-04T06:36:13.317Z,15.30
2022-12-04T06:37:13.475Z,16.10
2022-12-04T06:38:13.205Z,14.5
2022-12-04T06:39:18.434Z,15
2022-12-04T06:40:13.720Z,15.5
2022-12-04T06:41:13.968Z,16.89
2022-12-04T06:42:13.629Z,15.80
2022-12-04T06:43:21.092Z,16.70
2022-12-04T06:44:13.665Z,15.80
2022-12-04T06:45:14.496Z,13.5
2022-12-04T06:46:13.347Z,14.80
2022-12-04T06:47:13.739Z,13.30
2022-12-04T06:48:13.865Z,15.19
2022-12-04T06:49:13.509Z,13.80
2022-12-04T06:50:13.873Z,14.80
2022-12-04T06:51:13.974Z,14.39
2022-12-04T06:52:13.795Z,14
2022-12-04T06:53:13.700Z,13.80
2022-12-04T06:54:13.370Z,14.19
2022-12-04T06:55:13.902Z,14.89
2022-12-04T06:56:13.751Z,12.89
2022-12-04T06:57:27.771Z,13.30
2022-12-04T06:58:13.240Z,15.19
2022-12-04T06:59:13.160Z,14.39
2022-12-04T07:00:13.713Z,14.80
2022-12-04T07:01:13.213Z,15.60
2022-12-04T07:02:13.944Z,14.89
2022-12-04T07:03:28.496Z,14.10
2022-12-04T07:04:13.898Z,15
2022-12-04T07:05:13.891Z,13.80
2022-12-04T07:06:13.830Z,14.80
2022-12-04T07:07:13.845Z,16
2022-12-04T07:08:13.741Z,14.60
2022-12-04T07:09:13.833Z,15.19
2022-12-04T07:10:13.841Z,15.10
2022-12-04T07:11:13.613Z,16.29
2022-12-04T07:12:13.840Z,14.19
2022-12-04T07:13:13.698Z,15.39
2022-12-04T07:14:13.256Z,14.5
2022-12-04T07:15:14.162Z,16.5
2022-12-04T07:16:13.088Z,15.60
2022-12-04T07:17:14.512Z,15.10
2022-12-04T07:18:13.384Z,16.10
2022-12-04T07:19:13.119Z,15.60
2022-12-04T07:20:14.001Z,15.69
2022-12-04T07:21:13.253Z,16.20
2022-12-04T07:22:13.918Z,15.60
2022-12-04T07:23:14.210Z,14.19
2022-12-04T07:24:12.806Z,14.60
2022-12-04T07:25:13.757Z,17
2022-12-04T07:26:13.848Z,15.69
2022-12-04T07:27:14.008Z,15.60
2022-12-04T07:28:13.092Z,14
2022-12-04T07:29:12.976Z,13.80
2022-12-04T07:30:15.793Z,13.19
2022-12-04T07:31:13.653Z,13.10
2022-12-04T07:32:13.216Z,13.39
2022-12-04T07:33:13.133Z,14.5
2022-12-04T07:34:13.019Z,15.10
2022-12-04T07:35:13.948Z,15.5
2022-12-04T07:36:12.813Z,14.39
2022-12-04T07:37:14.000Z,16.39
2022-12-04T07:38:14.307Z,15.89
2022-12-04T07:40:13.817Z,15.10
2022-12-04T07:41:13.220Z,14.89
2022-12-04T07:42:14.185Z,15.80
2022-12-04T07:43:13.412Z,14.89
2022-12-04T07:44:13.830Z,14.60
2022-12-04T07:45:14.122Z,15.69
2022-12-04T07:46:14.043Z,14
2022-12-04T07:47:14.367Z,15.30
2022-12-04T07:48:13.659Z,15.89
2022-12-04T07:49:13.646Z,15.10
2022-12-04T07:50:13.728Z,15.39
2022-12-04T07:51:14.062Z,14.39
2022-12-04T07:52:13.997Z,15
2022-12-04T07:53:13.390Z,14.10
2022-12-04T07:54:13.433Z,15.5
2022-12-04T07:55:17.512Z,13.69
2022-12-04T07:56:13.808Z,14.89
2022-12-04T07:57:14.371Z,15.60
2022-12-04T07:58:13.090Z,14.60
2022-12-04T07:59:14.187Z,15.10
2022-12-04T08:00:14.004Z,14.60
2022-12-04T08:01:14.001Z,15
2022-12-04T08:02:13.718Z,13.69
2022-12-04T08:03:13.599Z,15.89
2022-12-04T08:04:13.724Z,15.10
2022-12-04T08:05:14.790Z,13.10
2022-12-04T08:06:14.114Z,14.5
2022-12-04T08:07:13.824Z,14.69
2022-12-04T08:09:14.355Z,14.89
2022-12-04T08:11:13.348Z,14
2022-12-04T08:12:13.417Z,14.19
2022-12-04T08:13:13.724Z,14.89
2022-12-04T08:14:14.449Z,14.69
2022-12-04T08:15:13.922Z,15.60
2022-12-04T08:16:14.181Z,15
2022-12-04T08:17:13.345Z,15.69
2022-12-04T08:18:13.277Z,14.60
2022-12-04T08:20:13.553Z,15.19
2022-12-04T08:21:13.040Z,15.60
2022-12-04T08:22:13.671Z,15.80
2022-12-04T08:23:13.131Z,15.10
2022-12-04T08:24:14.418Z,15.5
2022-12-04T08:25:14.273Z,16.10
2022-12-04T08:26:13.552Z,17.10
2022-12-04T08:27:14.441Z,16.60
2022-12-04T08:28:13.868Z,16.20
2022-12-04T08:29:14.661Z,17
2022-12-04T08:30:13.142Z,17.39
2022-12-04T08:31:13.581Z,17.5
2022-12-04T08:32:14.059Z,18.39
2022-12-04T08:33:13.277Z,16.39
2022-12-04T08:34:13.740Z,16.70
2022-12-04T08:35:14.140Z,15.89
2022-12-04T08:36:13.106Z,16.79
2022-12-04T08:37:13.506Z,17.20
2022-12-04T08:39:13.951Z,16.70
2022-12-04T08:40:14.323Z,17.29
2022-12-04T08:41:13.319Z,16.79
2022-12-04T08:42:13.018Z,16.60
2022-12-04T08:43:13.828Z,17.10
2022-12-04T08:44:14.007Z,16.79
2022-12-04T08:45:15.619Z,16.60
2022-12-04T08:46:13.990Z,18.29
2022-12-04T08:47:13.685Z,16.89
2022-12-04T08:49:13.979Z,19.79
2022-12-04T08:50:14.347Z,16.79
2022-12-04T08:51:13.641Z,15.39
2022-12-04T08:52:13.619Z,16.39
2022-12-04T08:53:13.489Z,17.29
2022-12-04T08:54:13.978Z,17.79
2022-12-04T08:55:13.325Z,16.70
2022-12-04T08:56:13.411Z,16.79
2022-12-04T08:57:13.820Z,19.60
2022-12-04T08:58:13.717Z,17.29
2022-12-04T08:59:13.787Z,16.5
2022-12-04T09:00:14.912Z,17.29
2022-12-04T09:01:13.277Z,16.70
2022-12-04T09:02:12.903Z,16.60
2022-12-04T09:03:14.103Z,18.89
2022-12-04T09:04:13.829Z,18.79
2022-12-04T09:05:13.253Z,16.70
2022-12-04T09:06:13.298Z,17.5
2022-12-04T09:07:13.515Z,18.29
2022-12-04T09:08:13.587Z,18.70
2022-12-04T09:09:13.638Z,18.10
2022-12-04T09:10:13.963Z,18.39
2022-12-04T09:11:13.764Z,18.70
2022-12-04T09:12:13.697Z,16.89
2022-12-04T09:13:14.063Z,17.5
2022-12-04T09:14:13.986Z,16.29
2022-12-04T09:16:27.232Z,18.10
2022-12-04T09:17:14.811Z,17.70
2022-12-04T09:18:14.063Z,16.39
2022-12-04T09:19:13.674Z,16.20
2022-12-04T09:20:13.951Z,16
2022-12-04T09:21:13.751Z,16.5
2022-12-04T09:22:32.752Z,17.10
2022-12-04T09:23:14.202Z,16.70
2022-12-04T09:24:28.205Z,18.10
2022-12-04T09:25:13.608Z,17
2022-12-04T09:26:14.466Z,16.29
2022-12-04T09:27:15.067Z,17.39
2022-12-04T09:28:27.986Z,16.39
2022-12-04T09:29:13.282Z,16.70
2022-12-04T09:30:33.168Z,16.5
2022-12-04T09:31:14.160Z,16.79
2022-12-04T09:32:13.149Z,18.10
2022-12-04T09:33:13.603Z,17
2022-12-04T09:34:13.558Z,17.70
2022-12-04T09:35:13.498Z,16.5
2022-12-04T09:36:13.566Z,16.70
2022-12-04T09:37:14.173Z,17.39
2022-12-04T09:38:13.690Z,17.10
2022-12-04T09:39:13.915Z,17.5
2022-12-04T09:40:38.118Z,16.10
2022-12-04T09:41:13.931Z,17.70
2022-12-04T09:42:12.723Z,17.89
2022-12-04T09:43:13.739Z,16.89
2022-12-04T09:44:13.688Z,17.89
2022-12-04T09:45:13.519Z,18.10
2022-12-04T09:46:13.592Z,19.20
2022-12-04T09:47:13.953Z,17.60
2022-12-04T09:48:13.227Z,17.70
2022-12-04T09:49:13.299Z,17.20
2022-12-04T09:51:12.485Z,19
2022-12-04T09:52:20.312Z,16.20
2022-12-04T09:53:14.024Z,18.29
2022-12-04T09:54:12.960Z,16.39
2022-12-04T09:55:12.867Z,16
2022-12-04T09:56:13.226Z,16.39
2022-12-04T09:57:13.947Z,16.29
2022-12-04T09:58:13.919Z,18.60
2022-12-04T09:59:13.509Z,17.89
2022-12-04T10:01:13.718Z,18.29
2022-12-04T10:03:13.762Z,17.5
2022-12-04T10:04:13.915Z,17
2022-12-04T10:05:13.572Z,18.5
2022-12-04T10:06:14.011Z,17.29
2022-12-04T10:07:13.323Z,18.39
2022-12-04T10:08:14.019Z,17.29
2022-12-04T10:09:13.489Z,18.79
2022-12-04T10:10:13.692Z,18.5
2022-12-04T10:11:14.414Z,17.89
2022-12-04T10:13:14.084Z,19.20
2022-12-04T10:14:13.366Z,18.39
2022-12-04T10:15:13.721Z,17.79
2022-12-04T10:16:14.293Z,18.5
2022-12-04T10:17:13.886Z,16.79
2022-12-04T10:18:13.235Z,16.29
2022-12-04T10:19:13.607Z,17.29
2022-12-04T10:20:14.221Z,16.10
2022-12-04T10:21:13.360Z,16
2022-12-04T10:22:12.799Z,16.60
2022-12-04T10:23:14.309Z,17.70
2022-12-04T10:24:13.960Z,15.30
2022-12-04T10:25:12.819Z,14.5
2022-12-04T10:26:14.442Z,16.89
2022-12-04T10:27:14.144Z,16.29
2022-12-04T10:28:12.974Z,16.20
2022-12-04T10:29:13.462Z,16.10
2022-12-04T10:30:14.067Z,16.70
2022-12-04T10:31:13.767Z,16.10
2022-12-04T10:32:14.269Z,15.69
2022-12-04T10:33:13.791Z,15.60
2022-12-04T10:34:13.205Z,15
2022-12-04T10:35:13.756Z,15.39
2022-12-04T10:36:14.131Z,17.29
2022-12-04T10:37:13.560Z,15.89
2022-12-04T10:38:14.421Z,16.20
2022-12-04T10:39:14.380Z,16.10
2022-12-04T10:40:14.203Z,15.89
2022-12-04T10:41:15.229Z,17.60
2022-12-04T10:42:13.113Z,18.29
2022-12-04T10:43:13.244Z,16.10
2022-12-04T10:44:13.345Z,16.20
2022-12-04T10:45:13.955Z,17.20
2022-12-04T10:46:14.850Z,17.10
2022-12-04T10:47:14.150Z,18.10
2022-12-04T10:48:13.886Z,15.30
2022-12-04T10:49:13.534Z,17.10
2022-12-04T10:50:14.749Z,16.70
2022-12-04T10:51:13.755Z,15.80
2022-12-04T10:52:13.891Z,16.39
2022-12-04T10:53:14.100Z,17.89
2022-12-04T10:55:13.961Z,17.5
2022-12-04T10:56:14.115Z,18
2022-12-04T10:57:14.348Z,17.79
2022-12-04T10:58:14.005Z,16.89
2022-12-04T10:59:13.731Z,19.79
2022-12-04T11:00:14.776Z,17.70
2022-12-04T11:01:13.378Z,20.10
2022-12-04T11:02:13.887Z,17.5
2022-12-04T11:03:13.571Z,16.5
2022-12-04T11:04:13.554Z,17.60
2022-12-04T11:05:13.387Z,16.79
2022-12-04T11:06:13.377Z,17.10
2022-12-04T11:07:13.964Z,17.39
2022-12-04T11:08:18.210Z,16.39
2022-12-04T11:09:12.955Z,15.89
2022-12-04T11:10:14.300Z,15.39
2022-12-04T11:11:13.769Z,15.69
2022-12-04T11:12:14.137Z,16.29
2022-12-04T11:13:13.476Z,15.69
2022-12-04T11:14:13.912Z,16.39
2022-12-04T11:15:14.852Z,16.20
2022-12-04T11:16:14.763Z,15.19
2022-12-04T11:17:13.173Z,15.80
2022-12-04T11:18:13.345Z,16.29
2022-12-04T11:19:13.363Z,19.60
2022-12-04T11:20:13.902Z,18.60
2022-12-04T11:21:14.512Z,16.29
2022-12-04T11:22:13.990Z,15.80
2022-12-04T11:23:18.570Z,17.70
2022-12-04T11:24:12.926Z,16.20
2022-12-04T11:25:18.382Z,17.39
2022-12-04T11:26:14.192Z,17.20
2022-12-04T11:27:13.797Z,15.30
2022-12-04T11:28:27.731Z,16.79
2022-12-04T11:29:18.729Z,15.60
2022-12-04T11:30:14.966Z,16.10
2022-12-04T11:31:18.725Z,16.5
2022-12-04T11:32:13.310Z,17.20
2022-12-04T11:33:22.286Z,16.10
2022-12-04T11:34:13.423Z,15.60
2022-12-04T11:35:14.704Z,15.30
2022-12-04T11:36:14.137Z,17.5
2022-12-04T11:37:22.154Z,17
2022-12-04T11:38:13.849Z,16.10
2022-12-04T11:39:13.611Z,15
2022-12-04T11:40:14.655Z,16.5
2022-12-04T11:41:14.441Z,14.80
2022-12-04T11:42:13.618Z,16.39
2022-12-04T11:43:27.281Z,14.30
2022-12-04T11:44:13.818Z,15.39
2022-12-04T11:45:13.538Z,16.70
2022-12-04T11:46:14.234Z,17.29
2022-12-04T11:47:13.696Z,16.20
2022-12-04T11:48:13.869Z,15.69
2022-12-04T11:49:13.471Z,14.39
2022-12-04T11:50:13.979Z,16.20
2022-12-04T11:52:13.778Z,15.80
2022-12-04T11:54:14.382Z,15.89
2022-12-04T11:55:14.957Z,15.80
2022-12-04T11:56:14.409Z,16.5
2022-12-04T11:57:14.416Z,17.10
2022-12-04T11:58:14.653Z,16.39
2022-12-04T12:00:14.094Z,17.5
2022-12-04T12:01:14.572Z,17.79
2022-12-04T12:02:13.606Z,16.20
2022-12-04T12:03:13.956Z,15.10
2022-12-04T12:05:13.509Z,16.60
2022-12-04T12:06:13.857Z,15
2022-12-04T12:07:13.780Z,17.70
2022-12-04T12:08:14.104Z,14.89
2022-12-04T12:09:14.875Z,17.29
2022-12-04T12:10:13.804Z,14.60
2022-12-04T12:11:13.894Z,16.39
2022-12-04T12:12:14.566Z,16.79
2022-12-04T12:13:14.854Z,15
2022-12-04T12:14:14.000Z,16.89
2022-12-04T12:15:36.897Z,15.80
2022-12-04T12:16:13.507Z,15.10
2022-12-04T12:17:14.757Z,15.5
2022-12-04T12:18:16.454Z,15.60
2022-12-04T12:19:14.165Z,15.10
2022-12-04T12:20:14.163Z,15.30
2022-12-04T12:21:13.404Z,14.89
2022-12-04T12:22:13.710Z,15.39
2022-12-04T12:23:13.668Z,15.19
2022-12-04T12:24:13.639Z,16.39
2022-12-04T12:25:14.266Z,15.69
2022-12-04T12:26:13.759Z,14.10
2022-12-04T12:27:13.324Z,15.80
2022-12-04T12:28:13.909Z,15.19
2022-12-04T12:29:13.231Z,16.20
2022-12-04T12:30:14.015Z,16
2022-12-04T12:31:13.879Z,14.39
2022-12-04T12:32:13.401Z,16
2022-12-04T12:33:13.937Z,15.89
2022-12-04T12:34:13.516Z,14.89
2022-12-04T12:35:14.734Z,16.39
2022-12-04T12:36:14.356Z,16.29
2022-12-04T12:37:14.162Z,14.10
2022-12-04T12:38:13.301Z,15.19
2022-12-04T12:39:14.004Z,14.60
2022-12-04T12:40:13.936Z,16.20
2022-12-04T12:41:13.679Z,14.19
2022-12-04T12:42:13.489Z,15.10
2022-12-04T12:43:14.140Z,15.89
2022-12-04T12:44:13.745Z,15.80
2022-12-04T12:45:14.720Z,16.10
2022-12-04T12:46:13.178Z,16.29
2022-12-04T12:48:13.873Z,15
2022-12-04T12:49:14.853Z,17
2022-12-04T12:50:14.416Z,16.10
2022-12-04T12:51:29.568Z,15.30
2022-12-04T12:52:13.863Z,15
2022-12-04T12:53:13.823Z,15.30
2022-12-04T12:54:14.867Z,15.89
2022-12-04T12:55:14.120Z,15.60
2022-12-04T12:56:13.581Z,15.80
2022-12-04T12:58:13.861Z,15.69
2022-12-04T13:00:14.806Z,15.39
2022-12-04T13:01:14.311Z,14.5
2022-12-04T13:02:13.911Z,16.10
2022-12-04T13:03:13.435Z,15.69
2022-12-04T13:05:14.660Z,15.19
2022-12-04T13:06:14.050Z,15
2022-12-04T13:07:14.437Z,15.19
2022-12-04T13:08:13.477Z,13.39
2022-12-04T13:09:13.601Z,14.69
2022-12-04T13:10:14.693Z,15.5
2022-12-04T13:11:14.847Z,15.10
2022-12-04T13:12:13.674Z,15.30
2022-12-04T13:13:14.254Z,15
2022-12-04T13:14:14.270Z,15.10
2022-12-04T13:15:14.973Z,16
2022-12-04T13:16:13.487Z,16.70
2022-12-04T13:17:14.441Z,15.5
2022-12-04T13:18:14.177Z,13.89
2022-12-04T13:19:13.957Z,14.80
2022-12-04T13:20:14.604Z,15.39
2022-12-04T13:21:13.991Z,15
2022-12-04T13:23:13.109Z,16.10
2022-12-04T13:24:13.513Z,15
2022-12-04T13:25:15.018Z,15.19
2022-12-04T13:26:14.514Z,16.70
2022-12-04T13:27:13.894Z,16.79
2022-12-04T13:28:14.840Z,16.29
2022-12-04T13:29:14.810Z,16.20
2022-12-04T13:30:14.302Z,16.89
2022-12-04T13:31:14.475Z,16.39
2022-12-04T13:33:14.610Z,16.20
2022-12-04T13:34:15.771Z,16.39
2022-12-04T13:35:15.009Z,17.79
2022-12-04T13:36:14.012Z,14.89
2022-12-04T13:37:13.512Z,15.30
2022-12-04T13:38:14.179Z,16.39
2022-12-04T13:39:15.055Z,16.60
2022-12-04T13:40:14.514Z,15.30
2022-12-04T13:41:14.654Z,16.10
2022-12-04T13:42:14.906Z,14.80
2022-12-04T13:43:13.630Z,15.39